createdAt,value
2018-09-27T00:02:07.725Z,2.71
2018-09-27T00:08:02.641Z,1.29
2018-09-27T00:13:57.657Z,6.29
2018-09-27T00:19:52.657Z,3.43
2018-09-27T00:25:47.673Z,1.66
2018-09-27T00:31:42.664Z,1.39
2018-09-27T00:37:37.707Z,1.52
2018-09-27T00:43:32.652Z,1.54
2018-09-27T00:49:27.671Z,1.59
2018-09-27T00:55:22.726Z,1.45
2018-09-27T01:01:17.654Z,1.17
2018-09-27T01:07:12.672Z,1.42
2018-09-27T01:13:07.684Z,2.87
2018-09-27T01:24:57.689Z,1.35
2018-09-27T01:24:57.719Z,2.1
2018-09-27T01:30:52.681Z,1.78
2018-09-27T01:36:47.709Z,1.33
2018-09-27T01:42:42.712Z,3.13
2018-09-27T01:48:37.680Z,1.8
2018-09-27T01:54:32.748Z,1.22
2018-09-27T02:00:27.701Z,2.07
2018-09-27T02:06:22.701Z,2.92
2018-09-27T02:12:17.700Z,2.47
2018-09-27T02:18:12.731Z,1.29
2018-09-27T02:24:07.719Z,1.75
2018-09-27T02:30:02.725Z,1.51
2018-09-27T02:35:57.730Z,1.19
2018-09-27T02:41:52.731Z,1.47
2018-09-27T02:47:47.751Z,1.94
2018-09-27T02:53:42.744Z,2.8
2018-09-27T02:59:37.827Z,2.32
2018-09-27T03:05:32.723Z,3.91
2018-09-27T03:11:27.775Z,1.16
2018-09-27T03:17:22.733Z,1.14
2018-09-27T03:23:17.771Z,1.34
2018-09-27T03:29:12.760Z,1.17
2018-09-27T03:35:07.784Z,1.37
2018-09-27T03:41:02.768Z,1.45
2018-09-27T03:46:57.802Z,1.3
2018-09-27T03:52:52.764Z,2.53
2018-09-27T03:58:47.809Z,1.84
2018-09-27T04:04:42.866Z,3.49
2018-09-27T04:10:37.808Z,1.32
2018-09-27T04:16:32.782Z,1.63
2018-09-27T04:22:27.792Z,1.47
2018-09-27T04:28:22.798Z,1.37
2018-09-27T04:34:17.801Z,1.83
2018-09-27T04:40:12.811Z,3.57
2018-09-27T04:46:07.804Z,3.18
2018-09-27T04:52:02.792Z,2.33
2018-09-27T04:57:57.825Z,1.8
2018-09-27T05:03:52.868Z,2.98
2018-09-27T05:09:47.813Z,2.26
2018-09-27T05:15:43.037Z,2.83
2018-09-27T05:21:37.835Z,1.83
2018-09-27T05:27:32.865Z,1.63
2018-09-27T05:33:27.876Z,5.39
2018-09-27T05:39:22.869Z,2.75
2018-09-27T05:45:17.838Z,1.81
2018-09-27T05:51:12.852Z,1.86
2018-09-27T05:57:07.821Z,2.38
2018-09-27T06:03:02.833Z,1.18
2018-09-27T06:08:57.836Z,3.13
2018-09-27T06:14:52.847Z,4.41
2018-09-27T06:20:47.852Z,8.6
2018-09-27T06:26:42.884Z,2.67
2018-09-27T06:32:37.913Z,5.64
2018-09-27T06:38:32.882Z,4.98
2018-09-27T06:44:27.962Z,3.35
2018-09-27T06:50:22.878Z,8.44
2018-09-27T06:56:17.969Z,4.76
2018-09-27T07:02:12.901Z,5.07
2018-09-27T07:08:07.869Z,11.7
2018-09-27T07:14:02.901Z,13.52
2018-09-27T07:19:57.898Z,22.54
2018-09-27T07:25:52.908Z,25.39
2018-09-27T07:31:47.899Z,29.18
2018-09-27T07:37:42.927Z,22.3
2018-09-27T07:43:37.891Z,21.52
2018-09-27T07:49:32.893Z,20.82
2018-09-27T07:55:27.901Z,23.72
2018-09-27T08:01:22.921Z,14.76
2018-09-27T08:07:17.983Z,15.21
2018-09-27T08:13:12.933Z,13.37
2018-09-27T08:19:07.933Z,8.06
2018-09-27T08:25:02.943Z,9.74
2018-09-27T08:30:58.031Z,6.34
2018-09-27T08:36:52.917Z,5.74
2018-09-27T08:42:48.014Z,5.35
2018-09-27T08:48:43.039Z,9.67
2018-09-27T08:54:37.959Z,4.02
2018-09-27T09:00:32.954Z,12.79
2018-09-27T09:06:27.956Z,9.45
2018-09-27T09:12:22.993Z,5.83
2018-09-27T09:18:17.964Z,3.37
2018-09-27T09:24:12.974Z,8.56
2018-09-27T09:30:07.987Z,4.51
2018-09-27T09:36:03.090Z,1.99
2018-09-27T09:41:57.990Z,4.57
2018-09-27T09:47:52.974Z,3.09
2018-09-27T09:53:48.018Z,6.04
2018-09-27T09:59:43.027Z,5.73
2018-09-27T10:05:37.991Z,4.96
2018-09-27T10:11:33.014Z,5.09
2018-09-27T10:17:28.024Z,3.63
2018-09-27T10:23:23.008Z,5.78
2018-09-27T10:29:18.091Z,3.41
2018-09-27T10:35:13.044Z,6.87
2018-09-27T10:41:08.075Z,2.44
2018-09-27T10:47:03.090Z,7.68
2018-09-27T10:52:58.069Z,5.63
2018-09-27T10:58:53.054Z,7.81
2018-09-27T11:04:48.078Z,8.08
2018-09-27T11:10:43.068Z,2.18
2018-09-27T11:16:38.129Z,3.89
2018-09-27T11:22:33.140Z,2.16
2018-09-27T11:28:28.098Z,6.2
2018-09-27T11:34:23.084Z,2.38
2018-09-27T11:40:18.097Z,5.03
2018-09-27T11:46:13.103Z,2.85
2018-09-27T11:52:08.096Z,2.22
2018-09-27T11:58:03.134Z,6.76
2018-09-27T12:03:58.105Z,4.76
2018-09-27T12:09:53.135Z,2.66
2018-09-27T12:15:48.121Z,4.31
2018-09-27T12:21:43.148Z,1.97
2018-09-27T12:27:38.184Z,2.85
2018-09-27T12:33:33.132Z,6.69
2018-09-27T12:39:28.167Z,5.3
2018-09-27T12:45:23.216Z,4.83
2018-09-27T12:51:18.243Z,9.42
2018-09-27T12:57:13.300Z,1.75
2018-09-27T13:03:08.191Z,2.22
2018-09-27T13:09:03.244Z,1.1
2018-09-27T13:14:58.217Z,0.73
2018-09-27T13:20:53.927Z,2.52
2018-09-27T13:26:48.179Z,1.8
2018-09-27T13:32:43.185Z,1.56
2018-09-27T13:38:38.187Z,1.88
2018-09-27T13:44:33.187Z,0.46
2018-09-27T13:50:28.211Z,2.82
2018-09-27T13:56:23.246Z,0.61
2018-09-27T14:02:18.191Z,2.64
2018-09-27T14:08:13.216Z,2.28
2018-09-27T14:14:08.229Z,5.15
2018-09-27T14:20:03.226Z,4.59
2018-09-27T14:25:58.240Z,0.96
2018-09-27T14:31:53.230Z,0.55
2018-09-27T14:37:48.253Z,2.57
2018-09-27T14:43:43.282Z,0.6
2018-09-27T14:49:38.244Z,0.41
2018-09-27T14:55:33.307Z,0.69
2018-09-27T15:01:28.249Z,1.66
2018-09-27T15:07:23.264Z,0.88
2018-09-27T15:13:18.271Z,1.34
2018-09-27T15:19:13.303Z,0.62
2018-09-27T15:25:08.313Z,0.65
2018-09-27T15:31:03.273Z,3.01
2018-09-27T15:36:58.302Z,1.15
2018-09-27T15:42:53.295Z,0.84
2018-09-27T15:48:48.277Z,1.06
2018-09-27T15:54:43.301Z,2.61
2018-09-27T16:00:38.336Z,3.34
2018-09-27T16:06:33.339Z,0.91
2018-09-27T16:12:28.323Z,1.75
2018-09-27T16:18:23.341Z,1.2
2018-09-27T16:24:18.358Z,0.74
2018-09-27T16:30:13.331Z,2.74
2018-09-27T16:36:08.360Z,1.11
2018-09-27T16:42:03.391Z,2.92
2018-09-27T16:47:58.342Z,1.12
2018-09-27T16:53:53.376Z,0.93
2018-09-27T16:59:48.382Z,0.59
2018-09-27T17:05:43.466Z,2.56
2018-09-27T17:11:38.372Z,1.41
2018-09-27T17:17:33.418Z,2.02
2018-09-27T17:23:28.397Z,0.83
2018-09-27T17:29:23.404Z,2.6
2018-09-27T17:35:18.399Z,0.93
2018-09-27T17:41:13.411Z,1.3
2018-09-27T17:47:08.390Z,0.8
2018-09-27T17:53:03.528Z,0.82
2018-09-27T17:58:58.498Z,1.71
2018-09-27T18:04:53.401Z,4.55
2018-09-27T18:10:48.408Z,1.44
2018-09-27T18:16:43.657Z,4.32
2018-09-27T18:22:38.427Z,1.05
2018-09-27T18:28:33.496Z,0.82
2018-09-27T18:34:28.513Z,1.2
2018-09-27T18:40:23.423Z,2.99
2018-09-27T18:46:18.478Z,2.79
2018-09-27T18:52:13.438Z,4.87
2018-09-27T18:58:08.444Z,1.22
2018-09-27T19:04:03.521Z,2.43
2018-09-27T19:09:58.451Z,0.72
2018-09-27T19:15:53.500Z,0.98
2018-09-27T19:21:48.490Z,1.08
2018-09-27T19:27:43.460Z,0.67
2018-09-27T19:33:38.474Z,0.68
2018-09-27T19:39:33.483Z,4.38
2018-09-27T19:45:28.507Z,3.38
2018-09-27T19:51:23.474Z,2.16
2018-09-27T19:57:18.513Z,1.18
2018-09-27T20:03:13.484Z,1.31
2018-09-27T20:09:08.502Z,2.75
2018-09-27T20:15:03.554Z,2
2018-09-27T20:20:58.529Z,1.33
2018-09-27T20:26:53.520Z,1.47
2018-09-27T20:32:48.528Z,1.07
2018-09-27T20:38:43.566Z,0.97
2018-09-27T20:44:38.574Z,0.93
2018-09-27T20:50:33.564Z,4.15
2018-09-27T20:56:28.588Z,2.52
2018-09-27T21:02:23.599Z,1.19
2018-09-27T21:08:18.552Z,1.8
2018-09-27T21:14:13.583Z,1.03
2018-09-27T21:20:08.558Z,3.74
2018-09-27T21:26:03.750Z,1.27
2018-09-27T21:31:58.586Z,3.41
2018-09-27T21:37:53.607Z,1.57
2018-09-27T21:43:48.617Z,4.34
2018-09-27T21:49:43.621Z,0.92
2018-09-27T21:55:38.569Z,2.68
2018-09-27T22:01:33.605Z,1.25
2018-09-27T22:07:28.586Z,1.18
2018-09-27T22:13:23.597Z,2.65
2018-09-27T22:19:18.596Z,2.9
2018-09-27T22:25:13.624Z,3.38
2018-09-27T22:31:08.623Z,1.01
2018-09-27T22:37:03.622Z,1.88
2018-09-27T22:42:58.640Z,0.91
2018-09-27T22:48:53.655Z,1.18
2018-09-27T22:54:48.625Z,1.15
2018-09-27T23:00:43.637Z,0.97
2018-09-27T23:06:38.621Z,3.63
2018-09-27T23:12:33.636Z,2
2018-09-27T23:18:28.632Z,1.54
2018-09-27T23:24:23.675Z,0.79
2018-09-27T23:30:18.659Z,1.34
2018-09-27T23:36:13.666Z,0.84
2018-09-27T23:42:08.647Z,0.97
2018-09-27T23:48:03.696Z,0.79
2018-09-27T23:53:58.675Z,0.69
2018-09-27T23:59:53.667Z,1.24
